createdAt,value
2023-04-16T00:00:24.221Z,6.48
2023-04-16T00:02:51.025Z,6.42
2023-04-16T00:05:17.778Z,6.51
2023-04-16T00:07:44.197Z,6.57
2023-04-16T00:10:10.894Z,6.56
2023-04-16T00:12:37.413Z,6.38
2023-04-16T00:15:04.094Z,6.50
2023-04-16T00:17:30.710Z,6.58
2023-04-16T00:19:57.236Z,6.52
2023-04-16T00:22:23.719Z,6.44
2023-04-16T00:24:51.044Z,6.41
2023-04-16T00:27:19.375Z,6.45
2023-04-16T00:29:45.932Z,6.48
2023-04-16T00:32:12.541Z,6.44
2023-04-16T00:34:38.959Z,6.40
2023-04-16T00:37:05.460Z,6.50
2023-04-16T00:39:31.930Z,6.42
2023-04-16T00:41:58.421Z,6.48
2023-04-16T00:44:24.850Z,6.51
2023-04-16T00:46:53.810Z,6.56
2023-04-16T00:49:20.876Z,6.60
2023-04-16T00:51:48.061Z,6.41
2023-04-16T00:54:14.627Z,6.35
2023-04-16T00:56:41.380Z,6.38
2023-04-16T00:59:08.956Z,6.41
2023-04-16T01:01:36.035Z,6.49
2023-04-16T01:04:03.020Z,6.33
2023-04-16T01:06:29.570Z,6.31
2023-04-16T01:08:56.008Z,6.48
2023-04-16T01:11:22.560Z,6.44
2023-04-16T01:13:49.174Z,6.36
2023-04-16T01:16:16.874Z,6.48
2023-04-16T01:18:43.456Z,6.48
2023-04-16T01:21:10.481Z,6.42
2023-04-16T01:23:37.012Z,6.36
2023-04-16T01:26:03.739Z,6.40
2023-04-16T01:28:30.326Z,6.43
2023-04-16T01:30:56.930Z,6.43
2023-04-16T01:33:43.811Z,6.39
2023-04-16T01:36:11.957Z,6.39
2023-04-16T01:38:38.485Z,6.50
2023-04-16T01:41:04.904Z,6.48
2023-04-16T01:43:31.416Z,6.43
2023-04-16T01:46:17.214Z,6.38
2023-04-16T01:48:44.710Z,6.14
2023-04-16T01:51:11.404Z,6.16
2023-04-16T01:53:38.302Z,6.24
2023-04-16T01:56:05.958Z,6.34
2023-04-16T01:58:33.811Z,6.42
2023-04-16T02:01:02.016Z,6.29
2023-04-16T02:03:29.399Z,6.43
2023-04-16T02:05:56.078Z,6.34
2023-04-16T02:08:22.858Z,6.41
2023-04-16T02:10:50.231Z,6.36
2023-04-16T02:13:16.889Z,6.39
2023-04-16T02:15:50.788Z,6.37
2023-04-16T02:18:24.442Z,6.31
2023-04-16T02:20:51.304Z,6.24
2023-04-16T02:23:20.320Z,6.26
2023-04-16T02:25:47.739Z,6.37
2023-04-16T02:28:16.984Z,6.37
2023-04-16T02:30:45.609Z,6.19
2023-04-16T02:33:14.054Z,6.29
2023-04-16T02:35:50.751Z,6.27
2023-04-16T02:38:17.219Z,6.31
2023-04-16T02:40:43.867Z,6.31
2023-04-16T02:43:10.840Z,6.27
2023-04-16T02:45:37.295Z,6.35
2023-04-16T02:48:04.066Z,6.36
2023-04-16T02:50:30.734Z,6.41
2023-04-16T02:52:57.205Z,6.36
2023-04-16T02:55:23.594Z,6.36
2023-04-16T02:57:50.025Z,6.27
2023-04-16T03:00:16.545Z,6.35
2023-04-16T03:02:43.266Z,6.44
2023-04-16T03:05:10.022Z,6.53
2023-04-16T03:07:36.541Z,6.50
2023-04-16T03:10:02.985Z,6.57
2023-04-16T03:12:29.485Z,6.45
2023-04-16T03:14:55.944Z,6.60
2023-04-16T03:17:22.398Z,6.55
2023-04-16T03:19:50.730Z,6.59
2023-04-16T03:22:19.317Z,6.52
2023-04-16T03:24:46.219Z,6.48
2023-04-16T03:27:13.165Z,6.48
2023-04-16T03:29:39.876Z,6.42
2023-04-16T03:32:07.688Z,6.58
2023-04-16T03:34:34.103Z,6.62
2023-04-16T03:37:00.692Z,6.61
2023-04-16T03:39:27.247Z,6.64
2023-04-16T03:41:53.667Z,6.68
2023-04-16T03:44:20.734Z,6.48
2023-04-16T03:46:47.373Z,6.59
2023-04-16T03:49:14.121Z,6.53
2023-04-16T03:51:40.906Z,6.37
2023-04-16T03:54:07.390Z,6.36
2023-04-16T03:56:34.130Z,6.43
2023-04-16T03:59:00.538Z,6.59
2023-04-16T04:01:27.207Z,6.51
2023-04-16T04:03:53.917Z,6.61
2023-04-16T04:06:20.716Z,6.54
2023-04-16T04:08:47.923Z,6.63
2023-04-16T04:11:14.838Z,6.59
2023-04-16T04:13:43.077Z,6.56
2023-04-16T04:16:09.517Z,6.61
2023-04-16T04:18:36.052Z,6.52
2023-04-16T04:21:08.142Z,6.59
2023-04-16T04:23:35.781Z,6.62
2023-04-16T04:26:04.036Z,6.52
2023-04-16T04:28:32.071Z,6.61
2023-04-16T04:31:00.059Z,6.64
2023-04-16T04:33:28.699Z,6.71
2023-04-16T04:35:55.761Z,6.72
2023-04-16T04:38:25.201Z,6.68
2023-04-16T04:40:52.965Z,6.65
2023-04-16T04:43:20.998Z,6.69
2023-04-16T04:45:49.078Z,6.71
2023-04-16T04:48:16.470Z,6.78
2023-04-16T04:50:45.086Z,6.75
2023-04-16T04:53:11.965Z,6.79
2023-04-16T04:55:39.462Z,6.86
2023-04-16T04:58:06.327Z,6.84
2023-04-16T05:00:34.107Z,6.91
2023-04-16T05:03:03.111Z,6.88
2023-04-16T05:05:29.582Z,6.84
2023-04-16T05:07:55.928Z,6.91
2023-04-16T05:10:22.472Z,6.91
2023-04-16T05:12:49.162Z,6.93
2023-04-16T05:15:15.858Z,6.91
2023-04-16T05:17:42.310Z,6.75
2023-04-16T05:20:12.001Z,6.91
2023-04-16T05:22:38.472Z,6.86
2023-04-16T05:25:05.345Z,6.89
2023-04-16T05:27:31.801Z,6.90
2023-04-16T05:29:58.168Z,6.84
2023-04-16T05:32:27.891Z,6.81
2023-04-16T05:34:54.520Z,6.92
2023-04-16T05:37:20.933Z,7.13
2023-04-16T05:39:47.755Z,7.19
2023-04-16T05:42:14.199Z,7.34
2023-04-16T05:44:40.747Z,7.36
2023-04-16T05:47:09.314Z,7.35
2023-04-16T05:49:39.395Z,7.30
2023-04-16T05:52:06.198Z,7.05
2023-04-16T05:54:32.719Z,7.17
2023-04-16T05:57:01.021Z,7.22
2023-04-16T05:59:27.700Z,7.29
2023-04-16T06:01:54.280Z,7.21
2023-04-16T06:04:20.798Z,7.26
2023-04-16T06:06:47.408Z,7.25
2023-04-16T06:09:13.761Z,7.47
2023-04-16T06:11:40.298Z,7.41
2023-04-16T06:14:06.777Z,7.45
2023-04-16T06:16:33.376Z,7.28
2023-04-16T06:19:00.347Z,7.49
2023-04-16T06:21:27.116Z,7.46
2023-04-16T06:23:55.071Z,7.57
2023-04-16T06:26:21.630Z,7.60
2023-04-16T06:28:48.295Z,7.69
2023-04-16T06:31:14.820Z,7.49
2023-04-16T06:33:41.424Z,7.65
2023-04-16T06:36:07.898Z,7.83
2023-04-16T06:38:36.270Z,7.57
2023-04-16T06:41:03.270Z,7.57
2023-04-16T06:43:30.246Z,7.65
2023-04-16T06:45:56.649Z,7.57
2023-04-16T06:48:23.054Z,7.70
2023-04-16T06:50:49.480Z,7.69
2023-04-16T06:53:15.928Z,7.97
2023-04-16T06:55:42.380Z,8.00
2023-04-16T06:58:08.738Z,8.30
2023-04-16T07:00:35.249Z,8.42
2023-04-16T07:03:01.970Z,8.53
2023-04-16T07:05:28.733Z,8.31
2023-04-16T07:07:57.462Z,8.71
2023-04-16T07:10:23.931Z,8.67
2023-04-16T07:12:50.310Z,8.63
2023-04-16T07:15:16.981Z,8.71
2023-04-16T07:17:43.529Z,8.47
2023-04-16T07:20:10.210Z,8.58
2023-04-16T07:22:36.655Z,8.69
2023-04-16T07:25:03.141Z,8.72
2023-04-16T07:27:29.583Z,8.83
2023-04-16T07:29:56.062Z,8.87
2023-04-16T07:32:22.810Z,8.90
2023-04-16T07:34:49.335Z,8.63
2023-04-16T07:37:15.942Z,8.72
2023-04-16T07:39:42.412Z,8.81
2023-04-16T07:42:08.934Z,8.98
2023-04-16T07:44:35.785Z,9.05
2023-04-16T07:47:04.193Z,9.41
2023-04-16T07:49:31.987Z,9.65
2023-04-16T07:51:58.408Z,9.86
2023-04-16T07:54:24.958Z,9.95
2023-04-16T07:56:52.024Z,9.96
2023-04-16T07:59:23.579Z,9.90
2023-04-16T08:01:53.089Z,9.79
2023-04-16T08:04:24.587Z,9.94
2023-04-16T08:06:51.883Z,10.05
2023-04-16T08:09:20.686Z,10.07
2023-04-16T08:11:49.173Z,10.02
2023-04-16T08:14:18.560Z,10.30
2023-04-16T08:16:45.032Z,10.23
2023-04-16T08:19:11.523Z,10.06
2023-04-16T08:21:38.200Z,9.49
2023-04-16T08:24:04.665Z,9.50
2023-04-16T08:26:31.161Z,9.31
2023-04-16T08:28:57.573Z,9.66
2023-04-16T08:31:24.193Z,9.94
2023-04-16T08:33:50.727Z,10.33
2023-04-16T08:36:17.089Z,10.56
2023-04-16T08:38:43.548Z,10.58
2023-04-16T08:41:12.256Z,10.46
2023-04-16T08:43:42.153Z,10.36
2023-04-16T08:46:09.082Z,10.49
2023-04-16T08:48:37.042Z,10.89
2023-04-16T08:51:04.065Z,10.69
2023-04-16T08:53:42.599Z,11.35
2023-04-16T08:56:11.307Z,11.57
2023-04-16T08:58:39.582Z,11.52
2023-04-16T09:01:07.063Z,11.39
2023-04-16T09:03:36.451Z,11.34
2023-04-16T09:06:04.467Z,10.77
2023-04-16T09:08:32.265Z,10.21
2023-04-16T09:10:59.573Z,10.26
2023-04-16T09:13:26.672Z,10.76
2023-04-16T09:15:54.101Z,10.91
2023-04-16T09:18:21.335Z,11.11
2023-04-16T09:20:49.478Z,11.02
2023-04-16T09:23:16.063Z,10.60
2023-04-16T09:25:42.629Z,11.13
2023-04-16T09:28:12.023Z,11.29
2023-04-16T09:30:38.539Z,11.30
2023-04-16T09:33:13.993Z,11.14
2023-04-16T09:35:48.372Z,11.08
2023-04-16T09:38:15.556Z,11.11
2023-04-16T09:40:42.065Z,11.57
2023-04-16T09:43:15.035Z,10.94
2023-04-16T09:45:56.667Z,11.16
2023-04-16T09:48:31.581Z,11.48
2023-04-16T09:50:59.366Z,11.38
2023-04-16T09:53:30.652Z,11.44
2023-04-16T09:56:01.935Z,11.62
2023-04-16T09:58:29.122Z,11.61
2023-04-16T10:00:57.376Z,12.20
2023-04-16T10:03:34.834Z,12.22
2023-04-16T10:06:15.819Z,12.03
2023-04-16T10:08:50.274Z,12.20
2023-04-16T10:11:18.528Z,12.11
2023-04-16T10:13:45.162Z,12.24
2023-04-16T10:16:12.200Z,12.15
2023-04-16T10:18:43.813Z,12.44
2023-04-16T10:21:13.161Z,12.74
2023-04-16T10:23:40.685Z,12.71
2023-04-16T10:26:07.501Z,12.39
2023-04-16T10:28:35.624Z,11.99
2023-04-16T10:31:04.198Z,12.26
2023-04-16T10:33:33.315Z,12.60
2023-04-16T10:36:22.613Z,12.64
2023-04-16T10:38:56.691Z,12.69
2023-04-16T10:41:23.330Z,12.22
2023-04-16T10:43:51.082Z,12.72
2023-04-16T10:46:22.830Z,13.08
2023-04-16T10:48:52.546Z,13.28
2023-04-16T10:51:33.832Z,13.22
2023-04-16T10:54:04.478Z,12.85
2023-04-16T10:56:35.441Z,12.65
2023-04-16T10:59:06.387Z,12.94
2023-04-16T11:01:35.413Z,12.28
2023-04-16T11:04:21.033Z,12.52
2023-04-16T11:07:03.408Z,12.66
2023-04-16T11:09:52.032Z,12.36
2023-04-16T11:12:27.773Z,12.69
2023-04-16T11:14:58.685Z,12.63
2023-04-16T11:17:29.780Z,12.22
2023-04-16T11:19:56.481Z,12.90
2023-04-16T11:22:23.396Z,13.17
2023-04-16T11:24:57.410Z,13.01
2023-04-16T11:27:24.585Z,12.70
2023-04-16T11:30:02.029Z,12.56
2023-04-16T11:32:31.877Z,12.43
2023-04-16T11:34:59.834Z,12.22
2023-04-16T11:37:34.229Z,12.02
2023-04-16T11:40:01.579Z,11.81
2023-04-16T11:42:28.611Z,12.11
2023-04-16T11:44:56.740Z,12.08
2023-04-16T11:47:24.409Z,12.02
2023-04-16T11:49:51.458Z,11.91
2023-04-16T11:52:31.654Z,11.74
2023-04-16T11:54:59.607Z,11.60
2023-04-16T11:57:29.751Z,11.56
2023-04-16T12:00:01.742Z,11.74
2023-04-16T12:02:44.269Z,11.48
2023-04-16T12:05:28.724Z,12.10
2023-04-16T12:07:55.545Z,12.19
2023-04-16T12:10:22.394Z,12.35
2023-04-16T12:12:48.968Z,12.61
2023-04-16T12:15:15.709Z,12.20
2023-04-16T12:17:42.363Z,12.43
2023-04-16T12:20:11.554Z,12.09
2023-04-16T12:22:40.310Z,12.52
2023-04-16T12:25:15.458Z,12.64
2023-04-16T12:27:46.823Z,12.81
2023-04-16T12:30:15.369Z,12.85
2023-04-16T12:32:43.430Z,12.92
2023-04-16T12:35:13.439Z,12.90
2023-04-16T12:37:40.856Z,12.90
2023-04-16T12:40:08.575Z,12.64
2023-04-16T12:42:36.099Z,12.93
2023-04-16T12:45:06.901Z,13.14
2023-04-16T12:47:33.579Z,13.10
2023-04-16T12:49:59.990Z,13.40
2023-04-16T12:52:27.487Z,13.23
2023-04-16T12:54:54.061Z,12.95
2023-04-16T12:57:20.460Z,12.65
2023-04-16T12:59:47.182Z,12.88
2023-04-16T13:02:13.736Z,13.20
2023-04-16T13:04:40.488Z,13.33
2023-04-16T13:07:07.965Z,13.59
2023-04-16T13:09:34.451Z,13.52
2023-04-16T13:12:00.817Z,13.25
2023-04-16T13:14:27.316Z,12.93
2023-04-16T13:16:53.750Z,12.95
2023-04-16T13:19:21.141Z,12.99
2023-04-16T13:21:47.650Z,13.02
2023-04-16T13:24:14.162Z,12.74
2023-04-16T13:26:40.637Z,12.90
2023-04-16T13:29:07.042Z,12.67
2023-04-16T13:31:33.652Z,12.08
2023-04-16T13:34:00.231Z,11.92
2023-04-16T13:36:27.799Z,12.16
2023-04-16T13:38:54.550Z,12.15
2023-04-16T13:41:21.165Z,12.28
2023-04-16T13:43:47.579Z,12.10
2023-04-16T13:46:14.099Z,11.98
2023-04-16T13:48:40.750Z,12.20
2023-04-16T13:51:08.379Z,12.06
2023-04-16T13:53:35.028Z,12.14
2023-04-16T13:56:03.690Z,11.98
2023-04-16T13:58:30.384Z,11.59
2023-04-16T14:00:56.961Z,11.80
2023-04-16T14:03:24.972Z,11.82
2023-04-16T14:05:51.548Z,11.79
2023-04-16T14:08:18.092Z,11.94
2023-04-16T14:10:44.579Z,11.65
2023-04-16T14:13:12.327Z,11.85
2023-04-16T14:15:38.816Z,12.16
2023-04-16T14:18:05.479Z,12.25
2023-04-16T14:20:32.038Z,12.22
2023-04-16T14:22:58.546Z,11.92
2023-04-16T14:25:25.022Z,12.00
2023-04-16T14:27:51.580Z,11.95
2023-04-16T14:30:18.118Z,12.02
2023-04-16T14:32:44.522Z,11.94
2023-04-16T14:35:11.233Z,12.04
2023-04-16T14:37:38.869Z,12.39
2023-04-16T14:40:08.685Z,12.63
2023-04-16T14:42:39.171Z,13.07
2023-04-16T14:45:06.735Z,13.40
2023-04-16T14:47:37.836Z,13.21
2023-04-16T14:50:05.457Z,13.51
2023-04-16T14:52:32.594Z,13.29
2023-04-16T14:54:59.114Z,12.76
2023-04-16T14:57:25.522Z,12.25
2023-04-16T14:59:51.978Z,12.44
2023-04-16T15:02:18.619Z,12.59
2023-04-16T15:04:45.757Z,12.64
2023-04-16T15:07:12.233Z,12.54
2023-04-16T15:09:38.886Z,12.57
2023-04-16T15:12:05.590Z,12.25
2023-04-16T15:14:32.054Z,12.07
2023-04-16T15:16:58.564Z,12.18
2023-04-16T15:19:25.443Z,12.17
2023-04-16T15:21:51.942Z,11.91
2023-04-16T15:24:18.458Z,12.20
2023-04-16T15:26:45.513Z,12.44
2023-04-16T15:29:11.968Z,11.98
2023-04-16T15:31:38.392Z,11.92
2023-04-16T15:34:04.860Z,12.17
2023-04-16T15:36:31.758Z,12.24
2023-04-16T15:38:58.197Z,12.41
2023-04-16T15:41:24.898Z,12.02
2023-04-16T15:43:51.337Z,12.06
2023-04-16T15:46:17.888Z,11.68
2023-04-16T15:48:44.323Z,11.59
2023-04-16T15:51:11.163Z,11.68
2023-04-16T15:53:37.725Z,11.74
2023-04-16T15:56:04.161Z,11.78
2023-04-16T15:58:30.766Z,11.62
2023-04-16T16:00:57.860Z,11.63
2023-04-16T16:03:24.550Z,11.30
2023-04-16T16:05:51.102Z,11.38
2023-04-16T16:08:17.567Z,11.27
2023-04-16T16:10:44.123Z,10.98
2023-04-16T16:13:13.208Z,11.55
2023-04-16T16:15:42.549Z,10.99
2023-04-16T16:18:09.194Z,11.04
2023-04-16T16:20:36.664Z,11.22
2023-04-16T16:23:03.540Z,11.08
2023-04-16T16:25:30.300Z,10.67
2023-04-16T16:27:56.761Z,11.04
2023-04-16T16:30:23.230Z,10.63
2023-04-16T16:32:50.733Z,10.87
2023-04-16T16:35:17.248Z,10.81
2023-04-16T16:37:43.718Z,10.90
2023-04-16T16:40:11.051Z,10.89
2023-04-16T16:42:37.565Z,10.67
2023-04-16T16:45:05.951Z,10.42
2023-04-16T16:47:32.908Z,10.67
2023-04-16T16:50:01.365Z,10.96
2023-04-16T16:52:29.274Z,10.83
2023-04-16T16:54:56.831Z,10.83
2023-04-16T16:57:26.994Z,10.79
2023-04-16T16:59:54.506Z,10.84
2023-04-16T17:02:21.394Z,10.74
2023-04-16T17:04:47.911Z,10.69
2023-04-16T17:07:14.599Z,10.69
2023-04-16T17:09:41.285Z,10.62
2023-04-16T17:12:08.044Z,10.46
2023-04-16T17:14:35.257Z,10.44
2023-04-16T17:17:01.961Z,10.68
2023-04-16T17:19:28.617Z,10.42
2023-04-16T17:21:55.242Z,10.62
2023-04-16T17:24:21.738Z,10.52
2023-04-16T17:26:48.109Z,10.48
2023-04-16T17:29:14.576Z,10.42
2023-04-16T17:31:41.039Z,10.51
2023-04-16T17:34:07.584Z,10.45
2023-04-16T17:36:34.053Z,10.40
2023-04-16T17:39:00.697Z,10.31
2023-04-16T17:41:27.894Z,10.34
2023-04-16T17:43:54.293Z,10.28
2023-04-16T17:46:20.864Z,10.17
2023-04-16T17:48:48.770Z,10.12
2023-04-16T17:51:16.424Z,10.06
2023-04-16T17:53:43.481Z,9.93
2023-04-16T17:56:10.788Z,9.98
2023-04-16T17:58:37.261Z,9.90
2023-04-16T18:01:03.900Z,9.85
2023-04-16T18:03:32.396Z,9.71
2023-04-16T18:05:59.557Z,9.68
2023-04-16T18:08:26.646Z,9.65
2023-04-16T18:10:54.976Z,9.54
2023-04-16T18:13:21.532Z,9.48
2023-04-16T18:15:48.115Z,9.44
2023-04-16T18:18:14.704Z,9.14
2023-04-16T18:20:41.231Z,9.22
2023-04-16T18:23:07.746Z,9.11
2023-04-16T18:25:35.166Z,9.06
2023-04-16T18:28:03.756Z,8.88
2023-04-16T18:30:30.649Z,8.87
2023-04-16T18:33:19.426Z,8.72
2023-04-16T18:35:43.661Z,8.84
2023-04-16T18:38:10.257Z,8.89
2023-04-16T18:40:37.222Z,8.85
2023-04-16T18:43:04.111Z,8.83
2023-04-16T18:45:30.849Z,8.74
2023-04-16T18:48:02.813Z,8.82
2023-04-16T18:50:29.481Z,8.82
2023-04-16T18:52:55.881Z,8.87
2023-04-16T18:55:22.399Z,8.84
2023-04-16T18:57:48.823Z,8.90
2023-04-16T19:00:15.524Z,8.90
2023-04-16T19:02:42.517Z,8.94
2023-04-16T19:05:09.669Z,8.90
2023-04-16T19:07:37.502Z,8.93
2023-04-16T19:10:05.302Z,8.94
2023-04-16T19:12:32.483Z,9.04
2023-04-16T19:14:59.123Z,9.05
2023-04-16T19:17:25.650Z,9.02
2023-04-16T19:19:52.559Z,9.04
2023-04-16T19:22:18.964Z,9.09
2023-04-16T19:24:45.557Z,9.03
2023-04-16T19:27:12.035Z,8.87
2023-04-16T19:29:40.388Z,8.77
2023-04-16T19:32:06.928Z,8.84
2023-04-16T19:34:33.451Z,8.82
2023-04-16T19:36:59.929Z,8.85
2023-04-16T19:39:27.639Z,8.91
2023-04-16T19:41:54.080Z,9.04
2023-04-16T19:44:22.408Z,9.05
2023-04-16T19:46:48.876Z,8.79
2023-04-16T19:49:15.378Z,8.78
2023-04-16T19:51:41.793Z,8.78
2023-04-16T19:54:08.928Z,8.99
2023-04-16T19:56:35.784Z,8.97
2023-04-16T19:59:02.546Z,8.91
2023-04-16T20:01:30.778Z,8.87
2023-04-16T20:03:57.453Z,9.03
2023-04-16T20:06:24.203Z,8.81
2023-04-16T20:08:50.704Z,8.67
2023-04-16T20:11:17.654Z,8.81
2023-04-16T20:13:48.007Z,8.71
2023-04-16T20:16:14.800Z,8.83
2023-04-16T20:18:41.568Z,8.92
2023-04-16T20:21:09.160Z,8.71
2023-04-16T20:23:35.713Z,8.59
2023-04-16T20:26:02.197Z,8.59
2023-04-16T20:28:28.720Z,8.59
2023-04-16T20:30:55.158Z,8.64
2023-04-16T20:33:21.643Z,8.63
2023-04-16T20:35:49.072Z,8.51
2023-04-16T20:38:15.516Z,8.63
2023-04-16T20:40:44.610Z,8.49
2023-04-16T20:43:14.113Z,8.61
2023-04-16T20:45:40.955Z,8.48
2023-04-16T20:48:07.774Z,8.35
2023-04-16T20:50:34.422Z,8.46
2023-04-16T20:53:00.818Z,8.42
2023-04-16T20:55:27.360Z,8.48
2023-04-16T20:57:53.704Z,8.56
2023-04-16T21:00:20.450Z,8.45
2023-04-16T21:02:46.993Z,8.52
2023-04-16T21:05:16.369Z,8.44
2023-04-16T21:07:43.117Z,8.46
2023-04-16T21:10:10.468Z,8.21
2023-04-16T21:12:37.266Z,8.18
2023-04-16T21:15:04.261Z,8.46
2023-04-16T21:17:30.960Z,8.14
2023-04-16T21:19:57.586Z,8.32
2023-04-16T21:22:24.241Z,8.23
2023-04-16T21:24:50.767Z,7.99
2023-04-16T21:27:17.182Z,8.06
2023-04-16T21:29:43.617Z,7.96
2023-04-16T21:32:10.003Z,8.15
2023-04-16T21:34:36.476Z,8.01
2023-04-16T21:37:03.695Z,7.90
2023-04-16T21:39:30.919Z,7.99
2023-04-16T21:41:57.992Z,7.93
2023-04-16T21:44:24.462Z,7.87
2023-04-16T21:46:51.252Z,7.94
2023-04-16T21:49:17.813Z,8.12
2023-04-16T21:51:46.003Z,8.14
2023-04-16T21:54:13.004Z,7.86
2023-04-16T21:56:39.479Z,7.75
2023-04-16T21:59:05.876Z,7.82
2023-04-16T22:17:31.594Z,7.21
2023-04-16T22:20:00.391Z,7.43
2023-04-16T22:22:26.943Z,7.54
2023-04-16T22:24:53.993Z,7.77
2023-04-16T22:27:20.477Z,7.70
2023-04-16T22:29:47.314Z,7.81
2023-04-16T22:32:13.830Z,7.80
2023-04-16T22:34:40.253Z,7.80
2023-04-16T22:37:08.040Z,7.80
2023-04-16T22:39:34.779Z,7.75
2023-04-16T22:42:02.451Z,7.68
2023-04-16T22:44:29.009Z,7.93
2023-04-16T22:46:55.411Z,7.83
2023-04-16T22:49:21.928Z,7.86
2023-04-16T22:51:48.345Z,7.95
2023-04-16T22:54:14.973Z,7.81
2023-04-16T22:56:41.484Z,7.84
2023-04-16T22:59:07.918Z,7.88
2023-04-16T23:01:35.088Z,7.91
2023-04-16T23:04:01.739Z,7.91
2023-04-16T23:06:28.270Z,7.89
2023-04-16T23:08:54.655Z,7.91
2023-04-16T23:11:21.229Z,7.92
2023-04-16T23:13:47.659Z,7.97
2023-04-16T23:16:14.241Z,7.94
2023-04-16T23:18:40.750Z,7.96
2023-04-16T23:21:07.144Z,7.88
2023-04-16T23:23:33.636Z,7.82
2023-04-16T23:26:02.461Z,7.97
2023-04-16T23:28:28.977Z,7.97
2023-04-16T23:30:55.644Z,7.95
2023-04-16T23:33:22.467Z,7.94
2023-04-16T23:35:49.098Z,7.92
2023-04-16T23:38:15.783Z,7.89
2023-04-16T23:40:42.372Z,7.81
2023-04-16T23:43:08.769Z,7.84
2023-04-16T23:45:35.339Z,7.93
2023-04-16T23:48:01.925Z,7.80
2023-04-16T23:50:28.563Z,7.60
2023-04-16T23:52:55.039Z,7.87
2023-04-16T23:55:21.709Z,7.74
2023-04-16T23:57:48.227Z,7.89
